sensor_id;sensor_type;location;lat;lon;timestamp;P1;durP1;ratioP1;P2;durP2;ratioP2
60086;SDS011;45960;53.630;55.972;2023-05-10T00:00:13;24.55;;;10.93;;
60086;SDS011;45960;53.630;55.972;2023-05-10T00:01:15;25.35;;;9.80;;
60086;SDS011;45960;53.630;55.972;2023-05-10T00:02:16;36.05;;;10.43;;
60086;SDS011;45960;53.630;55.972;2023-05-10T00:03:17;28.38;;;10.85;;
60086;SDS011;45960;53.630;55.972;2023-05-10T00:04:18;25.88;;;10.43;;
60086;SDS011;45960;53.630;55.972;2023-05-10T00:05:19;21.58;;;10.27;;
60086;SDS011;45960;53.630;55.972;2023-05-10T00:06:20;29.25;;;10.93;;
60086;SDS011;45960;53.630;55.972;2023-05-10T00:07:22;24.10;;;10.32;;
60086;SDS011;45960;53.630;55.972;2023-05-10T00:08:23;24.17;;;11.10;;
60086;SDS011;45960;53.630;55.972;2023-05-10T00:09:24;21.20;;;10.40;;
60086;SDS011;45960;53.630;55.972;2023-05-10T00:10:25;25.70;;;10.45;;
60086;SDS011;45960;53.630;55.972;2023-05-10T00:11:26;20.98;;;10.15;;
60086;SDS011;45960;53.630;55.972;2023-05-10T00:12:27;19.67;;;10.00;;
60086;SDS011;45960;53.630;55.972;2023-05-10T00:13:28;24.25;;;9.82;;
60086;SDS011;45960;53.630;55.972;2023-05-10T00:14:29;26.70;;;11.27;;
60086;SDS011;45960;53.630;55.972;2023-05-10T00:15:30;25.23;;;11.02;;
60086;SDS011;45960;53.630;55.972;2023-05-10T00:16:32;24.58;;;10.68;;
60086;SDS011;45960;53.630;55.972;2023-05-10T00:17:33;25.02;;;10.52;;
60086;SDS011;45960;53.630;55.972;2023-05-10T00:18:34;19.70;;;9.98;;
60086;SDS011;45960;53.630;55.972;2023-05-10T00:19:35;33.53;;;10.75;;
60086;SDS011;45960;53.630;55.972;2023-05-10T00:20:36;20.13;;;10.48;;
60086;SDS011;45960;53.630;55.972;2023-05-10T00:21:37;38.85;;;10.75;;
60086;SDS011;45960;53.630;55.972;2023-05-10T00:22:38;20.52;;;10.70;;
60086;SDS011;45960;53.630;55.972;2023-05-10T00:23:39;26.35;;;10.55;;
60086;SDS011;45960;53.630;55.972;2023-05-10T00:24:40;24.13;;;10.82;;
60086;SDS011;45960;53.630;55.972;2023-05-10T00:25:42;34.75;;;11.23;;
60086;SDS011;45960;53.630;55.972;2023-05-10T00:26:43;27.65;;;10.88;;
60086;SDS011;45960;53.630;55.972;2023-05-10T00:27:44;22.25;;;10.82;;
60086;SDS011;45960;53.630;55.972;2023-05-10T00:28:45;27.73;;;10.82;;
60086;SDS011;45960;53.630;55.972;2023-05-10T00:29:46;24.65;;;9.73;;
60086;SDS011;45960;53.630;55.972;2023-05-10T00:30:47;29.15;;;11.82;;
60086;SDS011;45960;53.630;55.972;2023-05-10T00:31:49;27.67;;;10.88;;
60086;SDS011;45960;53.630;55.972;2023-05-10T00:32:50;22.48;;;10.25;;
60086;SDS011;45960;53.630;55.972;2023-05-10T00:33:52;29.58;;;10.85;;
60086;SDS011;45960;53.630;55.972;2023-05-10T00:34:53;33.00;;;11.95;;
60086;SDS011;45960;53.630;55.972;2023-05-10T00:35:55;30.23;;;10.82;;
60086;SDS011;45960;53.630;55.972;2023-05-10T00:36:56;29.95;;;11.88;;
60086;SDS011;45960;53.630;55.972;2023-05-10T00:37:57;23.98;;;10.30;;
60086;SDS011;45960;53.630;55.972;2023-05-10T00:38:58;31.70;;;10.82;;
60086;SDS011;45960;53.630;55.972;2023-05-10T00:39:59;25.45;;;10.43;;
60086;SDS011;45960;53.630;55.972;2023-05-10T00:41:01;35.42;;;11.13;;
60086;SDS011;45960;53.630;55.972;2023-05-10T00:42:05;32.35;;;10.50;;
60086;SDS011;45960;53.630;55.972;2023-05-10T00:43:07;22.45;;;10.40;;
60086;SDS011;45960;53.630;55.972;2023-05-10T00:44:08;28.30;;;11.68;;
60086;SDS011;45960;53.630;55.972;2023-05-10T00:45:09;28.65;;;11.65;;
60086;SDS011;45960;53.630;55.972;2023-05-10T00:46:11;27.40;;;11.65;;
60086;SDS011;45960;53.630;55.972;2023-05-10T00:47:15;27.15;;;12.38;;
60086;SDS011;45960;53.630;55.972;2023-05-10T00:48:17;23.27;;;11.68;;
60086;SDS011;45960;53.630;55.972;2023-05-10T00:49:18;22.77;;;11.27;;
60086;SDS011;45960;53.630;55.972;2023-05-10T00:50:21;21.23;;;10.65;;
60086;SDS011;45960;53.630;55.972;2023-05-10T00:51:22;33.67;;;12.73;;
60086;SDS011;45960;53.630;55.972;2023-05-10T00:52:24;20.85;;;11.35;;
60086;SDS011;45960;53.630;55.972;2023-05-10T00:53:26;27.20;;;11.25;;
60086;SDS011;45960;53.630;55.972;2023-05-10T00:54:28;29.98;;;11.00;;
60086;SDS011;45960;53.630;55.972;2023-05-10T00:55:29;28.70;;;11.77;;
60086;SDS011;45960;53.630;55.972;2023-05-10T00:56:31;33.30;;;12.15;;
60086;SDS011;45960;53.630;55.972;2023-05-10T00:57:32;25.27;;;10.88;;
60086;SDS011;45960;53.630;55.972;2023-05-10T00:58:33;22.35;;;11.35;;
60086;SDS011;45960;53.630;55.972;2023-05-10T00:59:35;21.27;;;10.63;;
60086;SDS011;45960;53.630;55.972;2023-05-10T01:00:36;24.58;;;11.15;;
60086;SDS011;45960;53.630;55.972;2023-05-10T01:01:39;24.08;;;11.65;;
60086;SDS011;45960;53.630;55.972;2023-05-10T01:02:40;25.90;;;10.85;;
60086;SDS011;45960;53.630;55.972;2023-05-10T01:03:41;23.15;;;11.50;;
60086;SDS011;45960;53.630;55.972;2023-05-10T01:04:43;19.88;;;10.95;;
60086;SDS011;45960;53.630;55.972;2023-05-10T01:05:44;37.30;;;11.88;;
60086;SDS011;45960;53.630;55.972;2023-05-10T01:06:45;28.20;;;11.75;;
60086;SDS011;45960;53.630;55.972;2023-05-10T01:07:46;25.65;;;11.60;;
60086;SDS011;45960;53.630;55.972;2023-05-10T01:08:48;38.95;;;11.88;;
60086;SDS011;45960;53.630;55.972;2023-05-10T01:09:51;52.97;;;13.65;;
60086;SDS011;45960;53.630;55.972;2023-05-10T01:10:52;28.75;;;12.15;;
60086;SDS011;45960;53.630;55.972;2023-05-10T01:11:53;24.58;;;11.23;;
60086;SDS011;45960;53.630;55.972;2023-05-10T01:12:55;18.58;;;10.55;;
60086;SDS011;45960;53.630;55.972;2023-05-10T01:13:57;28.05;;;11.85;;
60086;SDS011;45960;53.630;55.972;2023-05-10T01:14:59;24.65;;;11.35;;
60086;SDS011;45960;53.630;55.972;2023-05-10T01:16:02;24.92;;;12.02;;
60086;SDS011;45960;53.630;55.972;2023-05-10T01:17:04;26.77;;;11.15;;
60086;SDS011;45960;53.630;55.972;2023-05-10T01:18:06;36.33;;;11.20;;
60086;SDS011;45960;53.630;55.972;2023-05-10T01:19:16;26.55;;;9.95;;
60086;SDS011;45960;53.630;55.972;2023-05-10T01:20:32;108.85;;;16.60;;
60086;SDS011;45960;53.630;55.972;2023-05-10T01:22:58;25.67;;;11.02;;
60086;SDS011;45960;53.630;55.972;2023-05-10T01:26:14;24.60;;;9.73;;
60086;SDS011;45960;53.630;55.972;2023-05-10T01:34:42;39.65;;;10.75;;
60086;SDS011;45960;53.630;55.972;2023-05-10T01:35:58;34.78;;;11.43;;
60086;SDS011;45960;53.630;55.972;2023-05-10T01:37:10;34.15;;;12.55;;
60086;SDS011;45960;53.630;55.972;2023-05-10T01:39:22;28.15;;;12.07;;
60086;SDS011;45960;53.630;55.972;2023-05-10T01:40:30;29.83;;;11.05;;
60086;SDS011;45960;53.630;55.972;2023-05-10T01:41:59;31.20;;;10.77;;
60086;SDS011;45960;53.630;55.972;2023-05-10T01:43:05;37.38;;;12.32;;
60086;SDS011;45960;53.630;55.972;2023-05-10T01:45:30;31.55;;;12.10;;
60086;SDS011;45960;53.630;55.972;2023-05-10T01:46:38;35.13;;;12.18;;
60086;SDS011;45960;53.630;55.972;2023-05-10T01:47:42;33.08;;;11.75;;
60086;SDS011;45960;53.630;55.972;2023-05-10T01:49:03;27.67;;;10.68;;
60086;SDS011;45960;53.630;55.972;2023-05-10T01:50:16;29.23;;;12.25;;
60086;SDS011;45960;53.630;55.972;2023-05-10T01:51:25;29.20;;;11.75;;
60086;SDS011;45960;53.630;55.972;2023-05-10T01:52:36;25.52;;;11.63;;
60086;SDS011;45960;53.630;55.972;2023-05-10T01:53:41;24.38;;;12.68;;
60086;SDS011;45960;53.630;55.972;2023-05-10T01:54:53;25.73;;;13.35;;
60086;SDS011;45960;53.630;55.972;2023-05-10T01:56:04;30.17;;;11.85;;
60086;SDS011;45960;53.630;55.972;2023-05-10T01:57:06;29.58;;;11.90;;
60086;SDS011;45960;53.630;55.972;2023-05-10T01:58:18;27.77;;;11.88;;
60086;SDS011;45960;53.630;55.972;2023-05-10T01:59:31;22.08;;;11.43;;
60086;SDS011;45960;53.630;55.972;2023-05-10T02:01:46;29.50;;;11.20;;
60086;SDS011;45960;53.630;55.972;2023-05-10T02:02:51;22.17;;;10.98;;
60086;SDS011;45960;53.630;55.972;2023-05-10T02:03:53;27.60;;;12.25;;
60086;SDS011;45960;53.630;55.972;2023-05-10T02:04:56;25.05;;;11.60;;
60086;SDS011;45960;53.630;55.972;2023-05-10T02:05:58;24.02;;;12.25;;
60086;SDS011;45960;53.630;55.972;2023-05-10T02:07:00;30.13;;;13.07;;
60086;SDS011;45960;53.630;55.972;2023-05-10T02:08:02;26.42;;;11.13;;
60086;SDS011;45960;53.630;55.972;2023-05-10T02:09:06;28.95;;;10.82;;
60086;SDS011;45960;53.630;55.972;2023-05-10T02:10:09;25.45;;;10.98;;
60086;SDS011;45960;53.630;55.972;2023-05-10T02:11:13;28.70;;;11.23;;
60086;SDS011;45960;53.630;55.972;2023-05-10T02:12:14;27.58;;;12.13;;
60086;SDS011;45960;53.630;55.972;2023-05-10T02:13:17;31.23;;;11.90;;
60086;SDS011;45960;53.630;55.972;2023-05-10T02:14:19;27.23;;;11.05;;
60086;SDS011;45960;53.630;55.972;2023-05-10T02:15:22;25.02;;;11.82;;
60086;SDS011;45960;53.630;55.972;2023-05-10T02:16:26;25.20;;;11.07;;
60086;SDS011;45960;53.630;55.972;2023-05-10T02:17:28;25.52;;;11.43;;
60086;SDS011;45960;53.630;55.972;2023-05-10T02:18:32;22.60;;;11.40;;
60086;SDS011;45960;53.630;55.972;2023-05-10T02:19:38;23.42;;;10.68;;
60086;SDS011;45960;53.630;55.972;2023-05-10T02:20:41;27.27;;;12.32;;
60086;SDS011;45960;53.630;55.972;2023-05-10T02:21:44;23.58;;;11.27;;
60086;SDS011;45960;53.630;55.972;2023-05-10T02:22:47;22.02;;;10.82;;
60086;SDS011;45960;53.630;55.972;2023-05-10T02:23:50;23.92;;;11.52;;
60086;SDS011;45960;53.630;55.972;2023-05-10T02:24:57;30.30;;;11.00;;
60086;SDS011;45960;53.630;55.972;2023-05-10T02:25:59;23.17;;;10.30;;
60086;SDS011;45960;53.630;55.972;2023-05-10T02:27:02;20.42;;;10.63;;
60086;SDS011;45960;53.630;55.972;2023-05-10T02:28:06;31.33;;;11.30;;
60086;SDS011;45960;53.630;55.972;2023-05-10T02:29:10;22.73;;;10.93;;
60086;SDS011;45960;53.630;55.972;2023-05-10T02:30:13;21.20;;;11.15;;
60086;SDS011;45960;53.630;55.972;2023-05-10T02:31:15;24.92;;;11.30;;
60086;SDS011;45960;53.630;55.972;2023-05-10T02:32:18;23.92;;;12.27;;
60086;SDS011;45960;53.630;55.972;2023-05-10T02:33:21;29.90;;;11.73;;
60086;SDS011;45960;53.630;55.972;2023-05-10T02:34:27;24.77;;;11.27;;
60086;SDS011;45960;53.630;55.972;2023-05-10T02:35:28;21.20;;;10.90;;
60086;SDS011;45960;53.630;55.972;2023-05-10T02:36:30;23.67;;;11.23;;
60086;SDS011;45960;53.630;55.972;2023-05-10T02:37:32;24.30;;;11.63;;
60086;SDS011;45960;53.630;55.972;2023-05-10T02:38:36;26.00;;;11.00;;
60086;SDS011;45960;53.630;55.972;2023-05-10T02:39:37;22.75;;;10.57;;
60086;SDS011;45960;53.630;55.972;2023-05-10T02:40:44;20.92;;;10.93;;
60086;SDS011;45960;53.630;55.972;2023-05-10T02:41:46;25.52;;;10.65;;
60086;SDS011;45960;53.630;55.972;2023-05-10T02:42:50;22.17;;;11.10;;
60086;SDS011;45960;53.630;55.972;2023-05-10T02:43:56;25.42;;;11.57;;
60086;SDS011;45960;53.630;55.972;2023-05-10T02:45:00;20.08;;;10.88;;
60086;SDS011;45960;53.630;55.972;2023-05-10T02:46:05;21.48;;;10.32;;
60086;SDS011;45960;53.630;55.972;2023-05-10T02:47:06;24.50;;;10.80;;
60086;SDS011;45960;53.630;55.972;2023-05-10T02:48:07;21.63;;;11.80;;
60086;SDS011;45960;53.630;55.972;2023-05-10T02:49:09;20.35;;;11.32;;
60086;SDS011;45960;53.630;55.972;2023-05-10T02:50:10;24.95;;;11.15;;
60086;SDS011;45960;53.630;55.972;2023-05-10T02:51:12;22.10;;;11.50;;
60086;SDS011;45960;53.630;55.972;2023-05-10T02:52:19;22.90;;;11.30;;
60086;SDS011;45960;53.630;55.972;2023-05-10T02:53:30;25.02;;;11.45;;
60086;SDS011;45960;53.630;55.972;2023-05-10T02:54:34;25.90;;;11.60;;
60086;SDS011;45960;53.630;55.972;2023-05-10T02:55:42;21.85;;;11.65;;
60086;SDS011;45960;53.630;55.972;2023-05-10T02:56:53;22.23;;;10.90;;
60086;SDS011;45960;53.630;55.972;2023-05-10T02:57:59;27.38;;;12.15;;
60086;SDS011;45960;53.630;55.972;2023-05-10T02:59:01;21.02;;;12.00;;
60086;SDS011;45960;53.630;55.972;2023-05-10T03:00:03;26.38;;;12.73;;
60086;SDS011;45960;53.630;55.972;2023-05-10T03:01:05;22.75;;;11.52;;
60086;SDS011;45960;53.630;55.972;2023-05-10T03:02:08;24.13;;;11.88;;
60086;SDS011;45960;53.630;55.972;2023-05-10T03:03:11;20.88;;;11.50;;
60086;SDS011;45960;53.630;55.972;2023-05-10T03:04:12;31.67;;;12.68;;
60086;SDS011;45960;53.630;55.972;2023-05-10T03:05:13;24.60;;;11.50;;
60086;SDS011;45960;53.630;55.972;2023-05-10T03:06:14;23.23;;;12.43;;
60086;SDS011;45960;53.630;55.972;2023-05-10T03:07:16;30.85;;;12.80;;
60086;SDS011;45960;53.630;55.972;2023-05-10T03:08:22;30.90;;;12.82;;
60086;SDS011;45960;53.630;55.972;2023-05-10T03:09:24;23.20;;;11.40;;
60086;SDS011;45960;53.630;55.972;2023-05-10T03:10:26;21.90;;;11.60;;
60086;SDS011;45960;53.630;55.972;2023-05-10T03:14:45;27.92;;;10.68;;
60086;SDS011;45960;53.630;55.972;2023-05-10T03:15:58;33.60;;;11.90;;
60086;SDS011;45960;53.630;55.972;2023-05-10T03:17:07;30.38;;;13.02;;
60086;SDS011;45960;53.630;55.972;2023-05-10T03:18:22;29.13;;;12.88;;
60086;SDS011;45960;53.630;55.972;2023-05-10T03:21:02;23.23;;;12.55;;
60086;SDS011;45960;53.630;55.972;2023-05-10T03:22:08;23.60;;;12.38;;
60086;SDS011;45960;53.630;55.972;2023-05-10T03:23:34;22.73;;;11.85;;
60086;SDS011;45960;53.630;55.972;2023-05-10T03:24:36;22.38;;;12.02;;
60086;SDS011;45960;53.630;55.972;2023-05-10T03:25:42;23.48;;;11.63;;
60086;SDS011;45960;53.630;55.972;2023-05-10T03:26:45;27.00;;;12.40;;
60086;SDS011;45960;53.630;55.972;2023-05-10T03:27:51;42.28;;;13.35;;
60086;SDS011;45960;53.630;55.972;2023-05-10T03:28:53;23.45;;;12.57;;
60086;SDS011;45960;53.630;55.972;2023-05-10T03:29:55;25.52;;;11.25;;
60086;SDS011;45960;53.630;55.972;2023-05-10T03:30:57;29.10;;;12.93;;
60086;SDS011;45960;53.630;55.972;2023-05-10T03:32:00;28.77;;;12.75;;
60086;SDS011;45960;53.630;55.972;2023-05-10T03:33:06;34.88;;;14.75;;
60086;SDS011;45960;53.630;55.972;2023-05-10T03:34:11;49.10;;;13.00;;
60086;SDS011;45960;53.630;55.972;2023-05-10T03:35:12;30.75;;;12.52;;
60086;SDS011;45960;53.630;55.972;2023-05-10T03:36:14;28.90;;;13.48;;
60086;SDS011;45960;53.630;55.972;2023-05-10T03:37:16;35.42;;;14.40;;
60086;SDS011;45960;53.630;55.972;2023-05-10T03:38:17;26.23;;;11.63;;
60086;SDS011;45960;53.630;55.972;2023-05-10T03:39:18;32.92;;;13.10;;
60086;SDS011;45960;53.630;55.972;2023-05-10T03:40:26;43.35;;;14.45;;
60086;SDS011;45960;53.630;55.972;2023-05-10T03:41:32;31.30;;;13.50;;
60086;SDS011;45960;53.630;55.972;2023-05-10T03:42:34;21.55;;;13.18;;
60086;SDS011;45960;53.630;55.972;2023-05-10T03:43:35;35.10;;;14.68;;
60086;SDS011;45960;53.630;55.972;2023-05-10T03:44:38;55.60;;;14.70;;
60086;SDS011;45960;53.630;55.972;2023-05-10T03:45:39;62.03;;;14.82;;
60086;SDS011;45960;53.630;55.972;2023-05-10T03:46:41;32.60;;;13.77;;
60086;SDS011;45960;53.630;55.972;2023-05-10T03:47:42;38.22;;;13.70;;
60086;SDS011;45960;53.630;55.972;2023-05-10T03:48:44;28.63;;;12.80;;
60086;SDS011;45960;53.630;55.972;2023-05-10T03:49:45;33.15;;;13.75;;
60086;SDS011;45960;53.630;55.972;2023-05-10T03:50:46;43.58;;;14.48;;
60086;SDS011;45960;53.630;55.972;2023-05-10T03:51:49;32.22;;;13.90;;
60086;SDS011;45960;53.630;55.972;2023-05-10T03:52:51;28.38;;;13.73;;
60086;SDS011;45960;53.630;55.972;2023-05-10T03:53:52;125.97;;;17.27;;
60086;SDS011;45960;53.630;55.972;2023-05-10T03:54:53;31.38;;;14.90;;
60086;SDS011;45960;53.630;55.972;2023-05-10T03:55:54;69.20;;;15.85;;
60086;SDS011;45960;53.630;55.972;2023-05-10T03:56:55;27.33;;;12.45;;
60086;SDS011;45960;53.630;55.972;2023-05-10T03:57:56;34.42;;;14.65;;
60086;SDS011;45960;53.630;55.972;2023-05-10T03:58:58;29.60;;;12.68;;
60086;SDS011;45960;53.630;55.972;2023-05-10T03:59:59;30.63;;;12.32;;
60086;SDS011;45960;53.630;55.972;2023-05-10T04:01:00;28.08;;;13.82;;
60086;SDS011;45960;53.630;55.972;2023-05-10T04:02:02;27.98;;;12.48;;
60086;SDS011;45960;53.630;55.972;2023-05-10T04:03:04;26.33;;;13.48;;
60086;SDS011;45960;53.630;55.972;2023-05-10T04:04:05;28.92;;;13.70;;
60086;SDS011;45960;53.630;55.972;2023-05-10T04:05:07;31.42;;;12.32;;
60086;SDS011;45960;53.630;55.972;2023-05-10T04:06:08;28.77;;;13.30;;
60086;SDS011;45960;53.630;55.972;2023-05-10T04:07:12;26.15;;;13.75;;
60086;SDS011;45960;53.630;55.972;2023-05-10T04:08:14;23.50;;;13.60;;
60086;SDS011;45960;53.630;55.972;2023-05-10T04:09:17;23.05;;;13.35;;
60086;SDS011;45960;53.630;55.972;2023-05-10T04:10:18;28.50;;;12.43;;
60086;SDS011;45960;53.630;55.972;2023-05-10T04:11:20;20.95;;;12.30;;
60086;SDS011;45960;53.630;55.972;2023-05-10T04:12:22;27.75;;;13.40;;
60086;SDS011;45960;53.630;55.972;2023-05-10T04:13:23;26.40;;;13.60;;
60086;SDS011;45960;53.630;55.972;2023-05-10T04:14:24;24.50;;;13.45;;
60086;SDS011;45960;53.630;55.972;2023-05-10T04:15:25;32.25;;;13.88;;
60086;SDS011;45960;53.630;55.972;2023-05-10T04:16:26;24.73;;;13.52;;
60086;SDS011;45960;53.630;55.972;2023-05-10T04:17:28;28.92;;;14.13;;
60086;SDS011;45960;53.630;55.972;2023-05-10T04:18:29;25.20;;;12.55;;
60086;SDS011;45960;53.630;55.972;2023-05-10T04:19:30;23.45;;;12.73;;
60086;SDS011;45960;53.630;55.972;2023-05-10T04:20:32;35.22;;;14.75;;
60086;SDS011;45960;53.630;55.972;2023-05-10T04:21:34;27.90;;;13.10;;
60086;SDS011;45960;53.630;55.972;2023-05-10T04:22:35;30.92;;;13.52;;
60086;SDS011;45960;53.630;55.972;2023-05-10T04:23:36;22.77;;;12.95;;
60086;SDS011;45960;53.630;55.972;2023-05-10T04:24:37;25.75;;;12.40;;
60086;SDS011;45960;53.630;55.972;2023-05-10T04:25:38;22.23;;;12.45;;
60086;SDS011;45960;53.630;55.972;2023-05-10T04:26:40;26.45;;;13.40;;
60086;SDS011;45960;53.630;55.972;2023-05-10T04:27:41;25.45;;;13.95;;
60086;SDS011;45960;53.630;55.972;2023-05-10T04:28:42;23.52;;;13.85;;
60086;SDS011;45960;53.630;55.972;2023-05-10T04:29:43;22.60;;;13.30;;
60086;SDS011;45960;53.630;55.972;2023-05-10T04:30:44;26.35;;;13.73;;
60086;SDS011;45960;53.630;55.972;2023-05-10T04:31:46;30.00;;;15.82;;
60086;SDS011;45960;53.630;55.972;2023-05-10T04:32:47;28.48;;;13.88;;
60086;SDS011;45960;53.630;55.972;2023-05-10T04:33:48;24.48;;;12.95;;
60086;SDS011;45960;53.630;55.972;2023-05-10T04:34:50;28.98;;;14.88;;
60086;SDS011;45960;53.630;55.972;2023-05-10T04:35:52;27.65;;;14.68;;
60086;SDS011;45960;53.630;55.972;2023-05-10T04:36:53;25.23;;;13.43;;
60086;SDS011;45960;53.630;55.972;2023-05-10T04:37:55;25.83;;;14.45;;
60086;SDS011;45960;53.630;55.972;2023-05-10T04:38:56;24.83;;;14.05;;
60086;SDS011;45960;53.630;55.972;2023-05-10T04:39:57;25.52;;;13.90;;
60086;SDS011;45960;53.630;55.972;2023-05-10T04:41:06;25.55;;;14.30;;
60086;SDS011;45960;53.630;55.972;2023-05-10T04:42:09;27.42;;;13.55;;
60086;SDS011;45960;53.630;55.972;2023-05-10T04:43:10;25.02;;;14.30;;
60086;SDS011;45960;53.630;55.972;2023-05-10T04:44:11;29.73;;;14.85;;
60086;SDS011;45960;53.630;55.972;2023-05-10T04:45:12;26.02;;;14.23;;
60086;SDS011;45960;53.630;55.972;2023-05-10T04:46:15;25.75;;;14.80;;
60086;SDS011;45960;53.630;55.972;2023-05-10T04:47:16;24.17;;;13.38;;
60086;SDS011;45960;53.630;55.972;2023-05-10T04:48:17;22.17;;;12.57;;
60086;SDS011;45960;53.630;55.972;2023-05-10T04:49:18;26.88;;;15.10;;
60086;SDS011;45960;53.630;55.972;2023-05-10T04:50:19;30.75;;;14.82;;
60086;SDS011;45960;53.630;55.972;2023-05-10T04:51:20;31.80;;;14.95;;
60086;SDS011;45960;53.630;55.972;2023-05-10T04:52:21;25.38;;;13.73;;
60086;SDS011;45960;53.630;55.972;2023-05-10T04:53:22;35.83;;;15.43;;
60086;SDS011;45960;53.630;55.972;2023-05-10T04:54:24;38.40;;;15.75;;
60086;SDS011;45960;53.630;55.972;2023-05-10T04:55:25;30.77;;;14.10;;
60086;SDS011;45960;53.630;55.972;2023-05-10T04:56:27;28.35;;;14.40;;
60086;SDS011;45960;53.630;55.972;2023-05-10T04:57:28;31.40;;;15.25;;
60086;SDS011;45960;53.630;55.972;2023-05-10T04:58:29;34.92;;;15.38;;
60086;SDS011;45960;53.630;55.972;2023-05-10T04:59:30;30.60;;;14.65;;
60086;SDS011;45960;53.630;55.972;2023-05-10T05:00:32;32.97;;;15.02;;
60086;SDS011;45960;53.630;55.972;2023-05-10T05:01:33;31.40;;;17.25;;
60086;SDS011;45960;53.630;55.972;2023-05-10T05:02:35;28.08;;;17.33;;
60086;SDS011;45960;53.630;55.972;2023-05-10T05:03:36;34.40;;;18.23;;
60086;SDS011;45960;53.630;55.972;2023-05-10T05:04:37;34.47;;;19.13;;
60086;SDS011;45960;53.630;55.972;2023-05-10T05:05:38;34.33;;;17.83;;
60086;SDS011;45960;53.630;55.972;2023-05-10T05:06:40;31.88;;;18.05;;
60086;SDS011;45960;53.630;55.972;2023-05-10T05:07:40;28.15;;;17.50;;
60086;SDS011;45960;53.630;55.972;2023-05-10T05:08:42;32.78;;;16.67;;
60086;SDS011;45960;53.630;55.972;2023-05-10T05:09:43;28.27;;;15.98;;
60086;SDS011;45960;53.630;55.972;2023-05-10T05:10:44;36.85;;;17.48;;
60086;SDS011;45960;53.630;55.972;2023-05-10T05:11:45;32.25;;;15.60;;
60086;SDS011;45960;53.630;55.972;2023-05-10T05:12:47;29.08;;;17.02;;
60086;SDS011;45960;53.630;55.972;2023-05-10T05:13:48;31.92;;;16.45;;
60086;SDS011;45960;53.630;55.972;2023-05-10T05:14:49;30.35;;;17.40;;
60086;SDS011;45960;53.630;55.972;2023-05-10T05:15:50;32.05;;;16.10;;
60086;SDS011;45960;53.630;55.972;2023-05-10T05:16:51;29.02;;;16.75;;
60086;SDS011;45960;53.630;55.972;2023-05-10T05:17:53;28.23;;;15.82;;
60086;SDS011;45960;53.630;55.972;2023-05-10T05:18:54;31.85;;;17.05;;
60086;SDS011;45960;53.630;55.972;2023-05-10T05:19:56;40.42;;;19.55;;
60086;SDS011;45960;53.630;55.972;2023-05-10T05:20:57;38.65;;;20.20;;
60086;SDS011;45960;53.630;55.972;2023-05-10T05:21:58;49.90;;;21.90;;
60086;SDS011;45960;53.630;55.972;2023-05-10T05:22:59;41.17;;;22.25;;
60086;SDS011;45960;53.630;55.972;2023-05-10T05:24:01;51.97;;;26.48;;
60086;SDS011;45960;53.630;55.972;2023-05-10T05:25:02;39.92;;;22.50;;
60086;SDS011;45960;53.630;55.972;2023-05-10T05:26:04;38.72;;;22.42;;
60086;SDS011;45960;53.630;55.972;2023-05-10T05:27:05;40.38;;;21.25;;
60086;SDS011;45960;53.630;55.972;2023-05-10T05:28:06;43.50;;;22.60;;
60086;SDS011;45960;53.630;55.972;2023-05-10T05:29:07;39.95;;;23.73;;
60086;SDS011;45960;53.630;55.972;2023-05-10T05:30:08;36.75;;;23.13;;
60086;SDS011;45960;53.630;55.972;2023-05-10T05:31:10;44.22;;;24.08;;
60086;SDS011;45960;53.630;55.972;2023-05-10T05:32:11;51.65;;;24.83;;
60086;SDS011;45960;53.630;55.972;2023-05-10T05:33:15;45.42;;;23.00;;
60086;SDS011;45960;53.630;55.972;2023-05-10T05:34:16;41.97;;;24.02;;
60086;SDS011;45960;53.630;55.972;2023-05-10T05:35:17;52.28;;;25.98;;
60086;SDS011;45960;53.630;55.972;2023-05-10T05:36:18;43.08;;;23.17;;
60086;SDS011;45960;53.630;55.972;2023-05-10T05:37:20;64.70;;;25.50;;
60086;SDS011;45960;53.630;55.972;2023-05-10T05:38:24;47.83;;;26.10;;
60086;SDS011;45960;53.630;55.972;2023-05-10T05:39:25;39.67;;;24.00;;
60086;SDS011;45960;53.630;55.972;2023-05-10T05:40:26;46.42;;;24.92;;
60086;SDS011;45960;53.630;55.972;2023-05-10T05:41:28;43.60;;;23.67;;
60086;SDS011;45960;53.630;55.972;2023-05-10T05:42:29;64.40;;;25.42;;
60086;SDS011;45960;53.630;55.972;2023-05-10T05:43:32;41.90;;;24.67;;
60086;SDS011;45960;53.630;55.972;2023-05-10T05:44:33;44.20;;;23.80;;
60086;SDS011;45960;53.630;55.972;2023-05-10T05:45:34;42.45;;;24.58;;
60086;SDS011;45960;53.630;55.972;2023-05-10T05:46:35;39.65;;;23.70;;
60086;SDS011;45960;53.630;55.972;2023-05-10T05:49:13;38.78;;;23.92;;
60086;SDS011;45960;53.630;55.972;2023-05-10T05:50:15;42.03;;;23.73;;
60086;SDS011;45960;53.630;55.972;2023-05-10T05:51:16;45.65;;;23.73;;
60086;SDS011;45960;53.630;55.972;2023-05-10T05:52:17;40.30;;;24.25;;
60086;SDS011;45960;53.630;55.972;2023-05-10T05:53:18;42.28;;;25.17;;
60086;SDS011;45960;53.630;55.972;2023-05-10T05:54:19;40.42;;;25.40;;
60086;SDS011;45960;53.630;55.972;2023-05-10T05:55:20;41.92;;;25.17;;
60086;SDS011;45960;53.630;55.972;2023-05-10T05:56:22;42.83;;;24.10;;
60086;SDS011;45960;53.630;55.972;2023-05-10T05:57:25;38.20;;;25.27;;
60086;SDS011;45960;53.630;55.972;2023-05-10T05:58:27;41.65;;;26.08;;
60086;SDS011;45960;53.630;55.972;2023-05-10T05:59:29;43.95;;;24.92;;
60086;SDS011;45960;53.630;55.972;2023-05-10T06:00:30;41.83;;;24.17;;
60086;SDS011;45960;53.630;55.972;2023-05-10T06:01:31;43.30;;;24.98;;
60086;SDS011;45960;53.630;55.972;2023-05-10T06:02:32;41.83;;;24.70;;
60086;SDS011;45960;53.630;55.972;2023-05-10T06:03:33;49.13;;;24.77;;
60086;SDS011;45960;53.630;55.972;2023-05-10T06:04:35;48.40;;;27.83;;
60086;SDS011;45960;53.630;55.972;2023-05-10T06:05:36;56.92;;;29.75;;
60086;SDS011;45960;53.630;55.972;2023-05-10T06:06:37;57.30;;;28.13;;
60086;SDS011;45960;53.630;55.972;2023-05-10T06:07:38;67.63;;;27.35;;
60086;SDS011;45960;53.630;55.972;2023-05-10T06:08:40;46.17;;;28.98;;
60086;SDS011;45960;53.630;55.972;2023-05-10T06:09:41;54.22;;;30.60;;
60086;SDS011;45960;53.630;55.972;2023-05-10T06:10:42;51.58;;;28.42;;
60086;SDS011;45960;53.630;55.972;2023-05-10T06:11:44;47.05;;;27.17;;
60086;SDS011;45960;53.630;55.972;2023-05-10T06:12:45;55.00;;;27.92;;
60086;SDS011;45960;53.630;55.972;2023-05-10T06:13:46;52.95;;;29.33;;
60086;SDS011;45960;53.630;55.972;2023-05-10T06:14:48;50.45;;;29.52;;
60086;SDS011;45960;53.630;55.972;2023-05-10T06:15:49;49.42;;;28.25;;
60086;SDS011;45960;53.630;55.972;2023-05-10T06:16:50;43.95;;;28.42;;
60086;SDS011;45960;53.630;55.972;2023-05-10T06:17:51;47.80;;;28.20;;
60086;SDS011;45960;53.630;55.972;2023-05-10T06:18:52;48.88;;;29.80;;
60086;SDS011;45960;53.630;55.972;2023-05-10T06:19:53;47.53;;;28.05;;
60086;SDS011;45960;53.630;55.972;2023-05-10T06:20:54;49.53;;;28.40;;
60086;SDS011;45960;53.630;55.972;2023-05-10T06:21:55;53.47;;;28.15;;